Chippewa Lake, Michigan
Current Conditions -  °F | °C
As of 8:35 PM on Tuesday 25 Nov 2014 (Local Time) from KRQB Reporting Station
Overcast Overcast  
Wind Chill: 19°   Ceiling: 1800
Heat Index: 27°   Visibility: 10mi
Dew Point: 24°   Wind: 7mph
Humidity: 88%   Direction: 260°W
Pressure: 30.12"   Gusts: NA
Location:  43.74°N, 85.3°W
Report Text: KRQB 260135Z AUTO 26006KT 10SM OVC018 M03/M05 A3012 RMK AO2 T10301047
Loading
Personal Weather Stations






























Interactive Weather Map New forecast layout! Learn more

10-Day Weather Forecast

Advertisements
Track Severe Weather on mobile